Time;durP1;ratioP1;P1;durP2;ratioP2;P2;SDS_P1;SDS_P2;PMS_P1;PMS_P2;Temp;Humidity;BMP_temperature;BMP_pressure;BME280_temperature;BME280_humidity;BME280_pressure;Samples;Min_cycle;Max_cycle;Signal;HPM_P1;HPM_P2
2022/11/05 00:10:52;;;;;;;35.73;21.30;;;;;;;;;;5017470;28;20045;-76
2022/11/05 00:19:05;;;;;;;35.53;20.30;;;;;;;;;;5018478;28;20103;-76
2022/11/05 00:27:00;;;;;;;33.13;20.47;;;;;;;;;;5018886;28;20056;-77
2022/11/05 00:29:26;;;;;;;34.73;21.63;;;;;;;;;;5026145;28;20048;-77
2022/11/05 00:31:52;;;;;;;34.13;20.73;;;;;;;;;;5026119;28;20060;-77
2022/11/05 00:34:18;;;;;;;36.50;21.27;;;;;;;;;;5029675;28;20033;-77
2022/11/05 00:36:44;;;;;;;35.73;19.67;;;;;;;;;;5027699;28;20458;-75
2022/11/05 00:39:13;;;;;;;39.07;21.17;;;;;;;;;;5017752;28;20034;-76
2022/11/05 00:41:39;;;;;;;38.63;21.83;;;;;;;;;;5015602;28;20044;-76
2022/11/05 00:49:28;;;;;;;40.03;23.57;;;;;;;;;;5018239;28;21038;-76
2022/11/05 00:49:38;;;;;;;42.97;22.63;;;;;;;;;;5019591;28;20048;-76
2022/11/05 00:54:49;;;;;;;35.10;22.03;;;;;;;;;;5018488;28;20173;-76
2022/11/05 00:57:17;;;;;;;33.87;21.60;;;;;;;;;;5030761;28;20128;-76
2022/11/05 00:59:43;;;;;;;36.10;22.10;;;;;;;;;;5017612;28;20037;-76
2022/11/05 01:02:09;;;;;;;37.50;22.00;;;;;;;;;;5016861;28;20022;-76
2022/11/05 01:04:35;;;;;;;32.97;21.97;;;;;;;;;;5015343;28;20046;-76
2022/11/05 01:07:01;;;;;;;37.17;21.67;;;;;;;;;;5026363;28;20033;-76
2022/11/05 01:09:27;;;;;;;31.83;20.87;;;;;;;;;;5016195;28;20493;-75
2022/11/05 01:11:54;;;;;;;37.10;22.90;;;;;;;;;;5017531;28;20029;-77
2022/11/05 01:14:20;;;;;;;45.77;22.63;;;;;;;;;;5017470;28;20029;-77
2022/11/05 01:16:46;;;;;;;35.00;21.23;;;;;;;;;;5028817;28;20037;-77
2022/11/05 01:19:14;;;;;;;30.50;20.07;;;;;;;;;;5025502;28;20103;-76
2022/11/05 01:21:40;;;;;;;42.27;23.20;;;;;;;;;;5025493;28;20387;-76
2022/11/05 01:24:07;;;;;;;37.50;23.90;;;;;;;;;;5017128;28;20026;-76
2022/11/05 01:26:35;;;;;;;44.47;23.53;;;;;;;;;;5015636;28;20058;-76
2022/11/05 01:29:01;;;;;;;37.30;21.67;;;;;;;;;;5016755;28;20327;-76
2022/11/05 01:31:28;;;;;;;37.77;23.80;;;;;;;;;;5016978;28;20049;-75
2022/11/05 01:33:56;;;;;;;44.00;26.80;;;;;;;;;;5024954;28;20025;-77
2022/11/05 01:36:25;;;;;;;42.87;24.67;;;;;;;;;;5027553;28;20025;-75
2022/11/05 01:38:53;;;;;;;44.83;24.30;;;;;;;;;;5018522;28;20493;-76
2022/11/05 01:41:19;;;;;;;39.97;23.23;;;;;;;;;;5016056;28;20030;-76
2022/11/05 01:43:55;;;;;;;34.73;23.93;;;;;;;;;;5018144;28;20038;-77
2022/11/05 01:46:25;;;;;;;36.23;23.30;;;;;;;;;;5027138;28;21648;-77
2022/11/05 01:48:52;;;;;;;42.77;24.47;;;;;;;;;;5015480;28;20033;-76
2022/11/05 01:51:21;;;;;;;39.03;23.93;;;;;;;;;;5025880;28;20034;-77
2022/11/05 01:53:47;;;;;;;37.40;23.20;;;;;;;;;;5013323;28;20048;-77
2022/11/05 01:56:16;;;;;;;37.27;22.43;;;;;;;;;;5033960;28;20030;-77
2022/11/05 01:58:47;;;;;;;42.00;23.33;;;;;;;;;;5022106;28;20041;-77
2022/11/05 02:01:13;;;;;;;45.57;23.70;;;;;;;;;;5035949;28;20048;-76
2022/11/05 02:03:42;;;;;;;35.67;23.30;;;;;;;;;;5035142;28;20076;-77
2022/11/05 02:06:13;;;;;;;42.17;25.70;;;;;;;;;;5035219;28;20037;-77
2022/11/05 02:08:54;;;;;;;39.50;24.47;;;;;;;;;;5023360;28;20025;-76
2022/11/05 02:11:20;;;;;;;39.20;22.90;;;;;;;;;;5020426;28;20025;-76
2022/11/05 02:13:47;;;;;;;38.13;23.97;;;;;;;;;;5031532;28;20052;-76
2022/11/05 02:16:32;;;;;;;40.57;24.30;;;;;;;;;;5022161;28;20037;-76
2022/11/05 02:19:12;;;;;;;42.93;24.57;;;;;;;;;;5019444;28;20022;-77
2022/11/05 02:21:48;;;;;;;47.90;25.37;;;;;;;;;;5036667;28;20148;-76
2022/11/05 02:24:32;;;;;;;45.70;26.53;;;;;;;;;;5038867;28;20037;-76
2022/11/05 02:27:08;;;;;;;43.50;26.53;;;;;;;;;;5020999;28;20076;-77
2022/11/05 02:29:46;;;;;;;44.30;25.07;;;;;;;;;;5023689;28;20188;-77
2022/11/05 02:32:12;;;;;;;38.57;24.47;;;;;;;;;;5022563;28;20040;-76
2022/11/05 02:35:01;;;;;;;42.30;23.83;;;;;;;;;;5023828;28;20037;-76
2022/11/05 02:37:50;;;;;;;41.47;23.73;;;;;;;;;;5023260;28;20125;-77
2022/11/05 02:40:19;;;;;;;38.63;23.77;;;;;;;;;;5024673;28;20997;-77
2022/11/05 02:43:24;;;;;;;40.10;23.53;;;;;;;;;;5023274;28;20116;-76
2022/11/05 02:46:08;;;;;;;38.77;23.53;;;;;;;;;;4999016;28;20060;-77
2022/11/05 02:48:53;;;;;;;39.87;23.57;;;;;;;;;;5001581;28;20112;-77
2022/11/05 02:51:32;;;;;;;37.60;22.17;;;;;;;;;;4997320;28;20115;-76
2022/11/05 02:54:02;;;;;;;39.20;23.07;;;;;;;;;;5000820;28;20065;-75
2022/11/05 02:56:30;;;;;;;42.17;24.67;;;;;;;;;;4980245;28;20402;-76
2022/11/05 02:58:56;;;;;;;46.30;25.33;;;;;;;;;;4999880;28;20108;-77
2022/11/05 03:01:22;;;;;;;43.33;24.30;;;;;;;;;;4995756;28;20506;-75
2022/11/05 03:03:49;;;;;;;43.97;25.07;;;;;;;;;;4996882;28;20046;-76
2022/11/05 03:06:38;;;;;;;46.63;27.93;;;;;;;;;;4982539;28;20133;-77
2022/11/05 03:09:17;;;;;;;42.17;25.13;;;;;;;;;;4998472;28;20034;-76
2022/11/05 03:11:51;;;;;;;48.63;27.27;;;;;;;;;;4992861;28;20049;-77
2022/11/05 03:14:17;;;;;;;45.90;26.03;;;;;;;;;;4999164;28;20038;-77
2022/11/05 03:16:47;;;;;;;40.17;25.30;;;;;;;;;;5008638;28;20030;-77
2022/11/05 03:19:20;;;;;;;39.77;23.33;;;;;;;;;;5018920;28;20048;-77
2022/11/05 03:21:48;;;;;;;36.47;22.70;;;;;;;;;;5016156;28;20175;-77
2022/11/05 03:24:18;;;;;;;32.03;21.87;;;;;;;;;;5015792;28;20030;-76
2022/11/05 03:26:53;;;;;;;37.93;22.37;;;;;;;;;;5018139;28;20469;-77
2022/11/05 03:29:27;;;;;;;36.13;21.50;;;;;;;;;;5016533;28;20076;-77
2022/11/05 03:31:55;;;;;;;42.73;23.30;;;;;;;;;;5018423;28;20045;-76
2022/11/05 03:34:25;;;;;;;39.93;21.83;;;;;;;;;;5017186;28;20026;-76
2022/11/05 03:36:52;;;;;;;35.20;22.00;;;;;;;;;;5025839;28;20068;-76
2022/11/05 03:39:23;;;;;;;35.40;21.97;;;;;;;;;;5018826;28;20022;-76
2022/11/05 03:41:51;;;;;;;40.60;23.13;;;;;;;;;;5032408;28;20033;-77
2022/11/05 03:44:23;;;;;;;47.50;24.33;;;;;;;;;;5018050;28;20029;-76
2022/11/05 03:46:50;;;;;;;45.83;25.63;;;;;;;;;;5019092;28;20061;-75
2022/11/05 03:49:19;;;;;;;45.77;26.00;;;;;;;;;;5018395;28;20030;-76
2022/11/05 03:51:50;;;;;;;53.53;26.27;;;;;;;;;;5017576;28;20125;-76
2022/11/05 03:54:19;;;;;;;48.63;25.30;;;;;;;;;;5019893;28;20037;-76
2022/11/05 03:56:53;;;;;;;43.77;24.57;;;;;;;;;;5029861;28;20303;-76
2022/11/05 03:59:20;;;;;;;48.83;25.50;;;;;;;;;;5029616;28;20037;-75
2022/11/05 04:01:46;;;;;;;52.83;27.13;;;;;;;;;;5028350;28;20065;-77
2022/11/05 04:04:15;;;;;;;54.83;27.87;;;;;;;;;;5030776;28;20154;-77
2022/11/05 04:14:55;;;;;;;56.33;28.87;;;;;;;;;;5018757;28;20060;-77
2022/11/05 04:17:21;;;;;;;51.50;27.03;;;;;;;;;;5029526;28;20124;-76
2022/11/05 04:25:19;;;;;;;46.77;26.83;;;;;;;;;;5019540;28;20096;-77
2022/11/05 04:27:46;;;;;;;55.33;28.27;;;;;;;;;;5034765;28;20041;-77
2022/11/05 04:30:18;;;;;;;57.43;28.47;;;;;;;;;;5015891;28;20049;-76
2022/11/05 04:33:03;;;;;;;59.60;30.45;;;;;;;;;;5028667;28;20080;-77
2022/11/05 04:35:34;;;;;;;52.67;27.67;;;;;;;;;;5016532;28;20057;-77
2022/11/05 04:38:00;;;;;;;51.30;28.23;;;;;;;;;;5026424;28;20017;-77
2022/11/05 04:40:29;;;;;;;53.83;28.97;;;;;;;;;;5013711;28;20045;-76
2022/11/05 04:42:55;;;;;;;62.30;30.30;;;;;;;;;;5017895;28;20026;-75
2022/11/05 04:45:23;;;;;;;64.23;32.70;;;;;;;;;;5017640;28;20105;-76
2022/11/05 04:47:49;;;;;;;60.67;31.17;;;;;;;;;;5026157;28;20109;-76
2022/11/05 04:50:15;;;;;;;60.30;30.97;;;;;;;;;;5017139;28;20454;-76
2022/11/05 04:52:44;;;;;;;69.87;30.70;;;;;;;;;;5017720;28;20029;-77
2022/11/05 04:55:10;;;;;;;61.73;31.43;;;;;;;;;;5015886;28;20018;-76
2022/11/05 04:57:36;;;;;;;67.97;30.90;;;;;;;;;;5017330;28;20029;-76
2022/11/05 05:00:03;;;;;;;68.73;31.33;;;;;;;;;;5024983;28;21699;-76
2022/11/05 05:02:29;;;;;;;60.17;32.70;;;;;;;;;;5019552;28;20388;-77
2022/11/05 05:04:55;;;;;;;72.50;34.27;;;;;;;;;;5018063;28;20037;-76
2022/11/05 05:07:21;;;;;;;67.90;36.23;;;;;;;;;;5016934;28;20053;-75
2022/11/05 05:09:47;;;;;;;56.50;31.27;;;;;;;;;;5029177;28;20033;-77
2022/11/05 05:12:13;;;;;;;56.77;29.90;;;;;;;;;;5016666;28;20034;-76
2022/11/05 05:14:39;;;;;;;57.07;28.97;;;;;;;;;;5016480;28;20034;-76
2022/11/05 05:17:05;;;;;;;55.10;28.80;;;;;;;;;;5016195;28;20083;-76
2022/11/05 05:21:37;;;;;;;56.07;29.20;;;;;;;;;;5029699;28;20423;-76
2022/11/05 05:22:17;;;;;;;60.03;30.13;;;;;;;;;;5016087;28;20030;-77
2022/11/05 05:24:45;;;;;;;58.77;29.20;;;;;;;;;;5016425;28;20061;-75
2022/11/05 05:27:11;;;;;;;60.37;30.33;;;;;;;;;;5026863;28;20044;-77
2022/11/05 05:29:37;;;;;;;61.87;30.83;;;;;;;;;;5016055;28;20033;-76
2022/11/05 05:32:03;;;;;;;68.10;32.57;;;;;;;;;;5016825;28;20029;-77
2022/11/05 05:34:29;;;;;;;76.77;33.63;;;;;;;;;;5018579;28;20033;-76
2022/11/05 05:36:55;;;;;;;65.33;33.23;;;;;;;;;;5017937;28;20038;-77
2022/11/05 05:39:21;;;;;;;71.27;32.10;;;;;;;;;;5024751;28;20021;-76
2022/11/05 05:41:47;;;;;;;62.07;29.67;;;;;;;;;;5013897;28;20026;-75
2022/11/05 05:44:13;;;;;;;57.23;27.90;;;;;;;;;;5014645;28;20034;-76
2022/11/05 05:46:39;;;;;;;64.10;29.93;;;;;;;;;;5029299;28;20060;-77
2022/11/05 05:49:05;;;;;;;58.40;28.40;;;;;;;;;;5020159;28;20452;-77
2022/11/05 05:51:31;;;;;;;61.77;28.87;;;;;;;;;;5015107;28;20040;-77
2022/11/05 05:53:58;;;;;;;62.63;29.50;;;;;;;;;;5026870;28;20033;-76
2022/11/05 05:56:24;;;;;;;65.00;29.93;;;;;;;;;;5026007;28;20098;-76
2022/11/05 05:58:50;;;;;;;68.90;29.40;;;;;;;;;;5017976;28;20037;-76
2022/11/05 06:01:19;;;;;;;69.80;30.40;;;;;;;;;;5025188;28;20044;-76
2022/11/05 06:03:46;;;;;;;70.77;32.93;;;;;;;;;;5016659;28;20098;-77
2022/11/05 06:06:12;;;;;;;88.87;35.37;;;;;;;;;;5023135;28;20486;-76
2022/11/05 06:08:38;;;;;;;81.37;33.00;;;;;;;;;;5017254;28;20033;-77
2022/11/05 06:11:05;;;;;;;72.03;33.07;;;;;;;;;;5027171;28;20041;-77
2022/11/05 06:13:31;;;;;;;85.30;36.60;;;;;;;;;;5013297;28;20040;-77
2022/11/05 06:16:01;;;;;;;77.03;31.93;;;;;;;;;;5024506;28;20049;-76
2022/11/05 06:18:27;;;;;;;66.40;30.47;;;;;;;;;;5030440;28;20037;-77
2022/11/05 06:20:54;;;;;;;59.57;29.73;;;;;;;;;;5016598;28;20099;-76
2022/11/05 06:23:20;;;;;;;57.60;28.43;;;;;;;;;;5026452;28;20025;-76
2022/11/05 06:25:46;;;;;;;61.90;28.60;;;;;;;;;;5016806;28;20034;-77
2022/11/05 06:28:12;;;;;;;55.80;26.57;;;;;;;;;;5016448;28;20037;-75
2022/11/05 06:30:38;;;;;;;62.97;28.57;;;;;;;;;;5014613;28;20040;-76
2022/11/05 06:33:05;;;;;;;66.43;28.63;;;;;;;;;;5026286;28;20030;-76
2022/11/05 06:35:33;;;;;;;66.40;29.80;;;;;;;;;;5013851;28;20030;-77
2022/11/05 06:38:02;;;;;;;72.00;30.90;;;;;;;;;;5026281;28;20026;-77
2022/11/05 06:40:28;;;;;;;78.50;33.50;;;;;;;;;;5027951;28;20383;-77
2022/11/05 06:42:54;;;;;;;71.83;31.70;;;;;;;;;;5030222;28;20379;-76
2022/11/05 06:45:23;;;;;;;73.40;31.60;;;;;;;;;;5019198;28;20040;-76
2022/11/05 06:47:54;;;;;;;67.77;30.90;;;;;;;;;;5018892;28;20080;-77
2022/11/05 06:50:20;;;;;;;66.73;30.57;;;;;;;;;;5017778;28;20060;-76
2022/11/05 06:52:52;;;;;;;70.03;30.80;;;;;;;;;;5032217;28;20045;-76
2022/11/05 06:55:18;;;;;;;75.67;32.20;;;;;;;;;;5034553;28;20037;-75
2022/11/05 06:57:44;;;;;;;73.90;34.03;;;;;;;;;;5019302;28;20040;-76
2022/11/05 07:00:10;;;;;;;89.27;35.23;;;;;;;;;;5032103;28;20463;-77
2022/11/05 07:02:36;;;;;;;86.83;34.07;;;;;;;;;;5031487;28;20072;-76
2022/11/05 07:05:02;;;;;;;75.50;33.07;;;;;;;;;;5018948;28;20591;-77
2022/11/05 07:07:28;;;;;;;84.57;33.83;;;;;;;;;;5031419;28;21753;-76
2022/11/05 07:09:54;;;;;;;85.40;35.50;;;;;;;;;;5017874;28;20026;-77
2022/11/05 07:12:20;;;;;;;102.47;37.40;;;;;;;;;;5018762;28;20030;-77
2022/11/05 07:14:46;;;;;;;90.53;36.53;;;;;;;;;;5033699;28;20195;-77
2022/11/05 07:17:12;;;;;;;88.77;35.17;;;;;;;;;;5018872;28;20518;-77
2022/11/05 07:19:38;;;;;;;100.53;38.30;;;;;;;;;;5031233;28;20038;-77
2022/11/05 07:22:04;;;;;;;90.83;35.60;;;;;;;;;;5018984;28;20061;-77
2022/11/05 07:24:30;;;;;;;92.60;36.13;;;;;;;;;;5020666;28;20123;-77
2022/11/05 07:26:56;;;;;;;102.03;38.60;;;;;;;;;;5019188;28;20095;-76
2022/11/05 07:29:25;;;;;;;91.87;37.27;;;;;;;;;;5018369;28;20048;-76
2022/11/05 07:31:51;;;;;;;93.17;37.07;;;;;;;;;;5019640;28;20033;-77
2022/11/05 07:34:19;;;;;;;95.77;37.43;;;;;;;;;;5028260;28;20048;-77
2022/11/05 07:36:45;;;;;;;108.23;40.47;;;;;;;;;;5016512;28;20037;-76
2022/11/05 07:39:14;;;;;;;103.93;39.23;;;;;;;;;;5029102;28;20029;-76
2022/11/05 07:41:40;;;;;;;105.77;39.40;;;;;;;;;;5034970;28;20036;-77
2022/11/05 07:44:06;;;;;;;105.87;40.83;;;;;;;;;;5027716;28;20034;-76
2022/11/05 07:46:32;;;;;;;98.97;38.83;;;;;;;;;;5032489;28;20105;-76
2022/11/05 07:48:58;;;;;;;117.97;41.73;;;;;;;;;;5018578;28;20530;-77
2022/11/05 07:51:24;;;;;;;105.17;41.47;;;;;;;;;;5029866;28;20034;-77
2022/11/05 07:53:50;;;;;;;107.30;42.23;;;;;;;;;;5015612;28;20053;-77
2022/11/05 07:56:17;;;;;;;114.87;41.73;;;;;;;;;;5017180;28;20030;-75
2022/11/05 07:58:43;;;;;;;112.83;42.90;;;;;;;;;;5018310;28;20033;-76
2022/11/05 08:01:09;;;;;;;109.53;40.10;;;;;;;;;;5018853;28;20045;-77
2022/11/05 08:03:35;;;;;;;95.93;37.73;;;;;;;;;;5018002;28;20033;-77
2022/11/05 08:06:03;;;;;;;101.83;39.40;;;;;;;;;;5027231;28;20049;-77
2022/11/05 08:08:29;;;;;;;88.33;35.97;;;;;;;;;;5031534;28;20527;-76
2022/11/05 08:11:02;;;;;;;92.20;37.20;;;;;;;;;;5024484;28;20116;-76
2022/11/05 08:13:30;;;;;;;90.85;37.55;;;;;;;;;;5023930;28;20045;-76
2022/11/05 08:15:56;;;;;;;81.47;34.70;;;;;;;;;;5029741;28;20034;-77
2022/11/05 08:18:30;;;;;;;84.27;35.07;;;;;;;;;;5030452;28;20061;-76
2022/11/05 08:20:57;;;;;;;77.00;34.03;;;;;;;;;;5037888;28;20029;-77
2022/11/05 08:23:23;;;;;;;76.80;32.53;;;;;;;;;;5023719;28;20362;-76
2022/11/05 08:25:49;;;;;;;67.27;30.50;;;;;;;;;;5023531;28;20461;-76
2022/11/05 08:28:15;;;;;;;52.90;26.23;;;;;;;;;;5034195;28;20458;-75
2022/11/05 08:30:41;;;;;;;60.67;25.47;;;;;;;;;;5026801;28;20049;-77
2022/11/05 08:33:09;;;;;;;60.03;27.00;;;;;;;;;;5016611;28;20025;-77
2022/11/05 08:35:35;;;;;;;53.03;23.43;;;;;;;;;;5019645;28;20092;-78
2022/11/05 08:38:04;;;;;;;52.93;23.20;;;;;;;;;;5022944;28;20033;-77
2022/11/05 08:40:31;;;;;;;42.87;21.53;;;;;;;;;;5034832;28;20025;-77
2022/11/05 08:42:57;;;;;;;39.80;20.03;;;;;;;;;;5039852;28;20044;-77
2022/11/05 08:45:24;;;;;;;36.23;18.20;;;;;;;;;;5021070;28;20084;-77
2022/11/05 08:47:50;;;;;;;38.10;17.47;;;;;;;;;;5025664;28;20132;-77
2022/11/05 08:50:16;;;;;;;30.70;15.57;;;;;;;;;;5026304;28;20033;-76
2022/11/05 08:52:42;;;;;;;32.10;15.53;;;;;;;;;;5030674;28;20695;-78
2022/11/05 08:55:11;;;;;;;27.20;13.30;;;;;;;;;;5027379;28;20034;-77
2022/11/05 08:57:37;;;;;;;32.83;14.47;;;;;;;;;;5028512;28;20536;-76
2022/11/05 09:00:03;;;;;;;28.83;13.33;;;;;;;;;;5020053;28;20080;-77
2022/11/05 09:02:29;;;;;;;21.70;11.97;;;;;;;;;;5029593;28;20080;-78
2022/11/05 09:04:55;;;;;;;26.73;12.23;;;;;;;;;;5026132;28;20040;-77
2022/11/05 09:07:21;;;;;;;21.60;11.40;;;;;;;;;;5016062;28;20421;-77
2022/11/05 09:09:47;;;;;;;21.50;10.57;;;;;;;;;;5032906;28;20124;-77
2022/11/05 09:12:13;;;;;;;22.23;10.97;;;;;;;;;;5017857;28;20112;-77
2022/11/05 09:14:39;;;;;;;22.47;9.77;;;;;;;;;;5015842;28;20117;-78
2022/11/05 09:17:12;;;;;;;23.37;9.50;;;;;;;;;;5018166;28;20064;-78
2022/11/05 09:19:38;;;;;;;19.13;8.30;;;;;;;;;;5028081;28;20032;-75
2022/11/05 09:22:04;;;;;;;19.03;9.60;;;;;;;;;;5018463;28;20069;-75
2022/11/05 09:24:30;;;;;;;17.53;8.73;;;;;;;;;;5018474;28;20037;-77
2022/11/05 09:26:56;;;;;;;19.23;9.17;;;;;;;;;;5014752;28;20038;-77
2022/11/05 09:29:22;;;;;;;20.30;9.93;;;;;;;;;;5024047;28;20053;-76
2022/11/05 09:31:48;;;;;;;19.77;8.67;;;;;;;;;;5016277;28;20044;-76
2022/11/05 09:34:14;;;;;;;16.40;8.53;;;;;;;;;;5015556;28;20022;-77
2022/11/05 09:36:40;;;;;;;26.57;7.97;;;;;;;;;;5011839;28;20041;-77
2022/11/05 09:39:06;;;;;;;17.70;7.60;;;;;;;;;;5015788;28;20414;-76
2022/11/05 09:41:35;;;;;;;20.43;8.80;;;;;;;;;;5023448;28;20037;-76
2022/11/05 09:44:27;;;;;;;13.13;6.63;;;;;;;;;;5024871;28;20037;-76
2022/11/05 09:46:56;;;;;;;15.60;7.50;;;;;;;;;;5019691;28;20050;-77
2022/11/05 09:49:22;;;;;;;16.37;7.03;;;;;;;;;;5013395;28;20026;-74
2022/11/05 09:51:48;;;;;;;15.30;6.80;;;;;;;;;;5014714;28;20068;-75
2022/11/05 09:54:15;;;;;;;17.60;8.97;;;;;;;;;;5027743;28;20065;-77
2022/11/05 09:56:41;;;;;;;12.33;6.43;;;;;;;;;;5014625;28;20033;-77
2022/11/05 09:59:13;;;;;;;16.13;7.10;;;;;;;;;;5014801;28;20029;-75
2022/11/05 10:01:40;;;;;;;15.57;6.03;;;;;;;;;;5015055;28;20033;-76
2022/11/05 10:04:09;;;;;;;12.33;6.60;;;;;;;;;;5028415;28;20715;-76
2022/11/05 10:06:36;;;;;;;11.20;5.50;;;;;;;;;;5021942;28;20352;-77
2022/11/05 10:09:06;;;;;;;11.10;5.27;;;;;;;;;;5022279;28;20033;-77
2022/11/05 10:11:40;;;;;;;11.57;5.90;;;;;;;;;;5025140;28;20030;-77
2022/11/05 10:14:08;;;;;;;13.70;5.13;;;;;;;;;;5015970;28;20397;-76
2022/11/05 10:16:35;;;;;;;13.00;6.10;;;;;;;;;;5014543;28;20412;-76
2022/11/05 10:19:23;;;;;;;10.63;6.30;;;;;;;;;;5017239;28;20029;-76
2022/11/05 10:21:49;;;;;;;14.03;5.27;;;;;;;;;;5020904;28;20045;-76
2022/11/05 10:24:16;;;;;;;10.10;5.20;;;;;;;;;;5020852;28;20033;-76
2022/11/05 10:26:44;;;;;;;12.23;6.23;;;;;;;;;;5019432;28;20022;-77
2022/11/05 10:29:15;;;;;;;19.67;5.33;;;;;;;;;;5018029;28;20025;-76
2022/11/05 10:31:42;;;;;;;12.00;5.03;;;;;;;;;;5026600;28;20038;-75
2022/11/05 10:34:12;;;;;;;9.70;4.40;;;;;;;;;;5020065;28;20033;-75
2022/11/05 10:36:38;;;;;;;10.50;4.30;;;;;;;;;;5033618;28;20047;-76
2022/11/05 10:39:12;;;;;;;15.60;4.97;;;;;;;;;;5017799;28;20052;-76
2022/11/05 10:41:44;;;;;;;10.10;4.33;;;;;;;;;;5030835;28;20037;-76
2022/11/05 10:44:19;;;;;;;10.93;4.55;;;;;;;;;;5017174;28;20026;-77
2022/11/05 10:47:05;;;;;;;12.43;4.10;;;;;;;;;;5020310;28;20041;-76
2022/11/05 10:49:50;;;;;;;8.47;3.77;;;;;;;;;;5028364;28;20040;-77
2022/11/05 10:52:42;;;;;;;10.50;3.27;;;;;;;;;;5017439;28;20029;-76
2022/11/05 10:55:27;;;;;;;9.98;3.15;;;;;;;;;;5018974;28;20410;-76
2022/11/05 10:57:53;;;;;;;9.13;2.77;;;;;;;;;;5018767;28;20037;-78
2022/11/05 11:00:24;;;;;;;13.53;3.43;;;;;;;;;;5017065;28;20036;-76
2022/11/05 11:02:51;;;;;;;6.43;3.17;;;;;;;;;;5017101;28;20111;-76
2022/11/05 11:05:19;;;;;;;7.10;2.23;;;;;;;;;;5017672;28;20040;-76
2022/11/05 11:07:52;;;;;;;7.57;2.73;;;;;;;;;;5033394;28;20034;-76
2022/11/05 11:10:20;;;;;;;8.30;2.27;;;;;;;;;;5019135;28;20038;-77
2022/11/05 11:12:48;;;;;;;10.83;2.50;;;;;;;;;;5018125;28;20040;-77
2022/11/05 11:15:20;;;;;;;7.30;3.07;;;;;;;;;;5018025;28;20029;-77
2022/11/05 11:17:46;;;;;;;4.70;1.77;;;;;;;;;;5027260;28;20037;-77
2022/11/05 11:20:18;;;;;;;5.37;2.00;;;;;;;;;;5018860;28;20034;-76
2022/11/05 11:22:58;;;;;;;6.35;2.00;;;;;;;;;;5024392;28;20072;-78
2022/11/05 11:25:27;;;;;;;6.40;2.30;;;;;;;;;;5017539;28;20080;-77
2022/11/05 11:27:54;;;;;;;6.50;1.67;;;;;;;;;;5017841;28;20045;-76
2022/11/05 11:30:20;;;;;;;5.73;1.60;;;;;;;;;;5016215;28;20025;-75
2022/11/05 11:32:49;;;;;;;7.67;2.10;;;;;;;;;;5017575;28;20465;-76
2022/11/05 11:35:22;;;;;;;9.87;1.87;;;;;;;;;;5017279;28;20029;-76
2022/11/05 11:37:48;;;;;;;7.17;1.93;;;;;;;;;;5025884;28;20033;-77
2022/11/05 11:40:16;;;;;;;6.60;1.90;;;;;;;;;;5017299;28;20029;-77
2022/11/05 11:42:45;;;;;;;7.23;2.07;;;;;;;;;;5029926;28;20025;-77
2022/11/05 11:45:23;;;;;;;6.93;1.80;;;;;;;;;;5015972;28;20173;-77
2022/11/05 11:47:49;;;;;;;12.23;1.97;;;;;;;;;;5017852;28;20038;-77
2022/11/05 11:50:33;;;;;;;3.23;1.77;;;;;;;;;;5016323;28;20513;-77
2022/11/05 11:53:18;;;;;;;4.67;2.60;;;;;;;;;;5016747;28;20041;-78
2022/11/05 11:55:59;;;;;;;7.90;3.03;;;;;;;;;;5025871;28;20041;-77
2022/11/05 11:58:36;;;;;;;5.80;2.30;;;;;;;;;;5017104;28;20044;-77
2022/11/05 12:01:08;;;;;;;6.13;2.97;;;;;;;;;;5028916;28;20033;-77
2022/11/05 12:03:44;;;;;;;6.85;2.15;;;;;;;;;;5027545;28;20038;-76
2022/11/05 12:06:16;;;;;;;7.77;2.03;;;;;;;;;;5016268;28;20034;-77
2022/11/05 12:08:57;;;;;;;7.88;2.65;;;;;;;;;;5029663;28;20035;-76
2022/11/05 12:11:41;;;;;;;8.67;2.27;;;;;;;;;;5016420;28;20048;-77
2022/11/05 12:14:15;;;;;;;5.53;2.60;;;;;;;;;;5018167;28;20022;-78
2022/11/05 12:16:41;;;;;;;8.00;2.87;;;;;;;;;;5029686;28;20026;-78
2022/11/05 12:19:13;;;;;;;11.57;2.73;;;;;;;;;;5030637;28;20033;-76
2022/11/05 12:21:42;;;;;;;10.88;2.83;;;;;;;;;;5017794;28;20449;-75
2022/11/05 12:24:27;;;;;;;6.37;2.40;;;;;;;;;;5016074;28;20017;-76
2022/11/05 12:27:02;;;;;;;5.33;2.50;;;;;;;;;;5023580;28;20051;-77
2022/11/05 12:29:35;;;;;;;8.83;2.83;;;;;;;;;;5014115;28;20033;-77
2022/11/05 12:32:17;;;;;;;9.07;2.70;;;;;;;;;;5023667;28;20052;-76
2022/11/05 12:34:48;;;;;;;7.13;2.60;;;;;;;;;;5018955;28;20033;-76
2022/11/05 12:37:23;;;;;;;6.03;2.57;;;;;;;;;;5016220;28;20112;-77
2022/11/05 12:39:49;;;;;;;8.63;2.40;;;;;;;;;;5027908;28;20116;-76
2022/11/05 12:42:27;;;;;;;8.97;2.30;;;;;;;;;;5013868;28;20484;-77
2022/11/05 12:44:53;;;;;;;6.60;2.67;;;;;;;;;;5013435;28;20033;-75
2022/11/05 12:47:22;;;;;;;10.70;2.43;;;;;;;;;;5014931;28;20442;-77
2022/11/05 12:49:48;;;;;;;4.90;2.07;;;;;;;;;;5013367;28;20478;-76
2022/11/05 12:52:17;;;;;;;11.40;2.13;;;;;;;;;;5014809;28;20029;-76
2022/11/05 12:54:52;;;;;;;4.47;1.83;;;;;;;;;;5014306;28;20044;-75
2022/11/05 12:57:19;;;;;;;6.80;2.37;;;;;;;;;;5014611;28;20041;-77
2022/11/05 12:59:45;;;;;;;4.57;2.10;;;;;;;;;;5022695;28;20363;-77
2022/11/05 13:02:23;;;;;;;7.60;1.80;;;;;;;;;;5016076;28;20026;-77
2022/11/05 13:04:52;;;;;;;9.10;1.90;;;;;;;;;;5025373;28;20068;-77
2022/11/05 13:07:24;;;;;;;6.47;1.87;;;;;;;;;;5016622;28;20083;-76
2022/11/05 13:09:53;;;;;;;3.75;1.40;;;;;;;;;;5027839;28;20033;-77
2022/11/05 13:12:21;;;;;;;4.23;1.37;;;;;;;;;;5015226;28;20063;-76
2022/11/05 13:14:54;;;;;;;7.37;1.77;;;;;;;;;;5016302;28;20478;-75
2022/11/05 13:17:23;;;;;;;2.57;1.10;;;;;;;;;;5023362;28;20442;-75
2022/11/05 13:19:55;;;;;;;6.90;2.07;;;;;;;;;;5018083;28;20087;-77
2022/11/05 13:22:21;;;;;;;3.67;1.47;;;;;;;;;;5027880;28;20808;-75
2022/11/05 13:24:49;;;;;;;4.90;1.37;;;;;;;;;;5012932;28;20030;-77
2022/11/05 13:27:18;;;;;;;3.47;1.90;;;;;;;;;;5015616;28;20044;-77
2022/11/05 13:29:49;;;;;;;4.77;1.37;;;;;;;;;;5013239;28;20041;-75
2022/11/05 13:32:23;;;;;;;3.37;1.60;;;;;;;;;;5013676;28;20038;-76
2022/11/05 13:34:51;;;;;;;4.60;1.60;;;;;;;;;;5013760;28;20041;-76
2022/11/05 13:40:07;;;;;;;4.80;1.83;;;;;;;;;;5014884;28;20128;-77
2022/11/05 13:42:45;;;;;;;3.40;1.83;;;;;;;;;;5015643;28;20147;-75
2022/11/05 13:45:31;;;;;;;4.60;2.13;;;;;;;;;;5021303;28;20029;-76
2022/11/05 13:48:16;;;;;;;4.83;1.63;;;;;;;;;;5013232;28;20049;-77
2022/11/05 13:50:59;;;;;;;4.63;1.60;;;;;;;;;;5023558;28;20038;-77
2022/11/05 13:53:25;;;;;;;5.23;1.80;;;;;;;;;;5012484;28;20033;-76
2022/11/05 13:56:10;;;;;;;6.00;1.50;;;;;;;;;;5025046;28;20220;-77
2022/11/05 13:58:36;;;;;;;5.63;1.43;;;;;;;;;;5029105;28;20035;-77
2022/11/05 14:01:24;;;;;;;3.97;1.17;;;;;;;;;;5029061;28;20025;-76
2022/11/05 14:03:51;;;;;;;4.90;2.10;;;;;;;;;;5011760;28;20049;-74
2022/11/05 14:06:25;;;;;;;5.30;1.57;;;;;;;;;;5012058;28;20112;-74
2022/11/05 14:08:51;;;;;;;3.90;1.20;;;;;;;;;;5015318;28;20634;-76
2022/11/05 14:11:20;;;;;;;5.53;1.50;;;;;;;;;;5012048;28;20509;-76
2022/11/05 14:13:50;;;;;;;2.23;0.90;;;;;;;;;;5024882;28;20199;-75
2022/11/05 14:16:20;;;;;;;4.83;1.47;;;;;;;;;;5021596;28;20030;-77
2022/11/05 14:18:48;;;;;;;8.73;1.27;;;;;;;;;;5015638;28;21352;-75
2022/11/05 14:21:26;;;;;;;4.43;1.30;;;;;;;;;;5012626;28;20140;-75
2022/11/05 14:23:53;;;;;;;3.57;1.80;;;;;;;;;;5020470;28;21544;-77
2022/11/05 14:26:24;;;;;;;6.97;1.70;;;;;;;;;;5018586;28;20226;-77
2022/11/05 14:29:10;;;;;;;6.43;1.47;;;;;;;;;;5021185;28;20038;-76
2022/11/05 14:31:51;;;;;;;4.87;1.73;;;;;;;;;;5025421;28;20046;-74
2022/11/05 14:34:20;;;;;;;8.00;1.63;;;;;;;;;;5024370;28;20040;-76
2022/11/05 14:37:02;;;;;;;5.20;2.27;;;;;;;;;;5028745;28;20494;-75
2022/11/05 14:39:31;;;;;;;14.15;3.55;;;;;;;;;;5024881;28;20087;-77
2022/11/05 14:42:03;;;;;;;5.00;2.30;;;;;;;;;;5025738;28;20025;-76
2022/11/05 14:44:30;;;;;;;4.10;1.80;;;;;;;;;;5016609;28;21696;-77
2022/11/05 14:46:59;;;;;;;9.00;2.53;;;;;;;;;;5012197;28;21522;-75
2022/11/05 14:49:27;;;;;;;4.83;1.93;;;;;;;;;;5019123;28;20030;-75
2022/11/05 14:51:54;;;;;;;11.00;2.63;;;;;;;;;;5024200;28;20045;-77
2022/11/05 14:54:24;;;;;;;7.90;2.23;;;;;;;;;;5012414;28;20726;-77
2022/11/05 14:56:53;;;;;;;6.77;1.93;;;;;;;;;;5012326;28;20034;-76
2022/11/05 14:59:32;;;;;;;7.13;2.20;;;;;;;;;;5024245;28;20104;-76
2022/11/05 15:01:58;;;;;;;4.03;2.07;;;;;;;;;;5013297;28;20128;-77
2022/11/05 15:04:28;;;;;;;3.60;1.80;;;;;;;;;;5013923;28;20033;-76
2022/11/05 15:07:03;;;;;;;4.20;1.97;;;;;;;;;;5030333;28;20159;-76
2022/11/05 15:09:35;;;;;;;5.57;1.73;;;;;;;;;;5031772;28;20034;-77
2022/11/05 15:12:08;;;;;;;3.42;1.60;;;;;;;;;;5015235;28;20064;-75
2022/11/05 15:14:45;;;;;;;7.25;2.40;;;;;;;;;;5015076;28;20061;-77
2022/11/05 15:17:21;;;;;;;4.53;1.53;;;;;;;;;;5015333;28;20030;-76
2022/11/05 15:19:47;;;;;;;4.00;1.73;;;;;;;;;;5028685;28;20030;-76
2022/11/05 15:22:34;;;;;;;4.07;1.97;;;;;;;;;;5020833;28;20029;-76
2022/11/05 15:25:00;;;;;;;5.33;2.30;;;;;;;;;;5013689;28;20030;-75